sensor_id;sensor_type;location;lat;lon;timestamp;P1;durP1;ratioP1;P2;durP2;ratioP2
59756;SDS011;45631;51.962;5.974;2023-11-18T00:01:38;36.55;;;19.52;;
59756;SDS011;45631;51.962;5.974;2023-11-18T00:04:07;34.45;;;17.60;;
59756;SDS011;45631;51.962;5.974;2023-11-18T00:06:42;33.55;;;18.77;;
59756;SDS011;45631;51.962;5.974;2023-11-18T00:09:11;34.05;;;19.58;;
59756;SDS011;45631;51.962;5.974;2023-11-18T00:11:42;37.15;;;20.60;;
59756;SDS011;45631;51.962;5.974;2023-11-18T00:14:11;33.60;;;18.77;;
59756;SDS011;45631;51.962;5.974;2023-11-18T00:16:43;34.85;;;19.08;;
59756;SDS011;45631;51.962;5.974;2023-11-18T00:19:11;35.05;;;19.52;;
59756;SDS011;45631;51.962;5.974;2023-11-18T00:21:39;35.13;;;19.58;;
59756;SDS011;45631;51.962;5.974;2023-11-18T00:24:07;36.20;;;19.55;;
59756;SDS011;45631;51.962;5.974;2023-11-18T00:26:36;35.72;;;20.10;;
59756;SDS011;45631;51.962;5.974;2023-11-18T00:29:08;33.70;;;19.30;;
59756;SDS011;45631;51.962;5.974;2023-11-18T00:31:36;36.03;;;18.63;;
59756;SDS011;45631;51.962;5.974;2023-11-18T00:34:05;34.83;;;19.35;;
59756;SDS011;45631;51.962;5.974;2023-11-18T00:36:33;33.58;;;19.80;;
59756;SDS011;45631;51.962;5.974;2023-11-18T00:39:01;37.33;;;20.05;;
59756;SDS011;45631;51.962;5.974;2023-11-18T00:41:30;36.00;;;19.30;;
59756;SDS011;45631;51.962;5.974;2023-11-18T00:44:01;35.65;;;19.83;;
59756;SDS011;45631;51.962;5.974;2023-11-18T00:46:31;38.83;;;20.52;;
59756;SDS011;45631;51.962;5.974;2023-11-18T00:49:02;34.03;;;18.58;;
59756;SDS011;45631;51.962;5.974;2023-11-18T00:51:31;34.13;;;19.30;;
59756;SDS011;45631;51.962;5.974;2023-11-18T00:53:59;36.38;;;19.15;;
59756;SDS011;45631;51.962;5.974;2023-11-18T00:56:30;35.25;;;20.83;;
59756;SDS011;45631;51.962;5.974;2023-11-18T00:58:59;35.28;;;20.42;;
59756;SDS011;45631;51.962;5.974;2023-11-18T01:01:27;36.22;;;19.58;;
59756;SDS011;45631;51.962;5.974;2023-11-18T01:03:57;35.03;;;18.45;;
59756;SDS011;45631;51.962;5.974;2023-11-18T01:06:26;32.80;;;19.40;;
59756;SDS011;45631;51.962;5.974;2023-11-18T01:08:54;33.30;;;18.00;;
59756;SDS011;45631;51.962;5.974;2023-11-18T01:11:22;36.30;;;19.27;;
59756;SDS011;45631;51.962;5.974;2023-11-18T01:13:50;33.67;;;18.02;;
59756;SDS011;45631;51.962;5.974;2023-11-18T01:16:21;30.48;;;18.48;;
59756;SDS011;45631;51.962;5.974;2023-11-18T01:18:50;33.10;;;19.02;;
59756;SDS011;45631;51.962;5.974;2023-11-18T01:21:20;33.58;;;19.73;;
59756;SDS011;45631;51.962;5.974;2023-11-18T01:23:49;33.10;;;19.10;;
59756;SDS011;45631;51.962;5.974;2023-11-18T01:26:17;32.08;;;18.75;;
59756;SDS011;45631;51.962;5.974;2023-11-18T01:28:47;33.78;;;18.77;;
59756;SDS011;45631;51.962;5.974;2023-11-18T01:31:15;32.30;;;17.70;;
59756;SDS011;45631;51.962;5.974;2023-11-18T01:33:44;31.85;;;18.40;;
59756;SDS011;45631;51.962;5.974;2023-11-18T01:36:13;32.88;;;18.23;;
59756;SDS011;45631;51.962;5.974;2023-11-18T01:38:42;32.40;;;18.35;;
59756;SDS011;45631;51.962;5.974;2023-11-18T01:41:11;30.73;;;19.05;;
59756;SDS011;45631;51.962;5.974;2023-11-18T01:43:39;28.88;;;16.80;;
59756;SDS011;45631;51.962;5.974;2023-11-18T01:46:08;31.00;;;18.15;;
59756;SDS011;45631;51.962;5.974;2023-11-18T01:48:39;28.42;;;16.50;;
59756;SDS011;45631;51.962;5.974;2023-11-18T01:51:09;28.75;;;17.25;;
59756;SDS011;45631;51.962;5.974;2023-11-18T01:53:38;29.20;;;17.23;;
59756;SDS011;45631;51.962;5.974;2023-11-18T01:56:11;32.22;;;17.02;;
59756;SDS011;45631;51.962;5.974;2023-11-18T01:58:41;30.38;;;15.93;;
59756;SDS011;45631;51.962;5.974;2023-11-18T02:01:10;29.20;;;16.80;;
59756;SDS011;45631;51.962;5.974;2023-11-18T02:03:43;32.15;;;17.58;;
59756;SDS011;45631;51.962;5.974;2023-11-18T02:06:11;30.80;;;16.15;;
59756;SDS011;45631;51.962;5.974;2023-11-18T02:08:42;32.20;;;18.63;;
59756;SDS011;45631;51.962;5.974;2023-11-18T02:11:16;33.00;;;17.15;;
59756;SDS011;45631;51.962;5.974;2023-11-18T02:13:48;31.52;;;16.83;;
59756;SDS011;45631;51.962;5.974;2023-11-18T02:16:20;29.77;;;18.13;;
59756;SDS011;45631;51.962;5.974;2023-11-18T02:18:49;30.17;;;17.60;;
59756;SDS011;45631;51.962;5.974;2023-11-18T02:21:20;39.40;;;19.90;;
59756;SDS011;45631;51.962;5.974;2023-11-18T02:23:50;40.13;;;19.98;;
59756;SDS011;45631;51.962;5.974;2023-11-18T02:26:24;38.72;;;20.27;;
59756;SDS011;45631;51.962;5.974;2023-11-18T02:28:52;40.78;;;21.52;;
59756;SDS011;45631;51.962;5.974;2023-11-18T02:31:22;44.90;;;22.75;;
59756;SDS011;45631;51.962;5.974;2023-11-18T02:34:00;45.40;;;22.55;;
59756;SDS011;45631;51.962;5.974;2023-11-18T02:36:35;53.67;;;24.15;;
59756;SDS011;45631;51.962;5.974;2023-11-18T02:39:08;48.35;;;23.60;;
59756;SDS011;45631;51.962;5.974;2023-11-18T02:41:46;43.63;;;23.73;;
59756;SDS011;45631;51.962;5.974;2023-11-18T02:44:15;48.13;;;24.58;;
59756;SDS011;45631;51.962;5.974;2023-11-18T02:46:47;54.15;;;24.30;;
59756;SDS011;45631;51.962;5.974;2023-11-18T02:49:15;45.10;;;24.70;;
59756;SDS011;45631;51.962;5.974;2023-11-18T02:51:44;47.15;;;23.52;;
59756;SDS011;45631;51.962;5.974;2023-11-18T02:54:14;53.55;;;25.52;;
59756;SDS011;45631;51.962;5.974;2023-11-18T02:56:44;51.53;;;25.65;;
59756;SDS011;45631;51.962;5.974;2023-11-18T02:59:13;51.60;;;25.77;;
59756;SDS011;45631;51.962;5.974;2023-11-18T03:01:41;53.05;;;26.40;;
59756;SDS011;45631;51.962;5.974;2023-11-18T03:04:09;50.33;;;24.73;;
59756;SDS011;45631;51.962;5.974;2023-11-18T03:06:37;51.00;;;25.80;;
59756;SDS011;45631;51.962;5.974;2023-11-18T03:09:07;54.05;;;25.67;;
59756;SDS011;45631;51.962;5.974;2023-11-18T03:11:36;53.47;;;24.80;;
59756;SDS011;45631;51.962;5.974;2023-11-18T03:14:06;47.70;;;24.42;;
59756;SDS011;45631;51.962;5.974;2023-11-18T03:16:36;51.05;;;25.02;;
59756;SDS011;45631;51.962;5.974;2023-11-18T03:19:05;55.08;;;25.75;;
59756;SDS011;45631;51.962;5.974;2023-11-18T03:21:35;52.80;;;25.98;;
59756;SDS011;45631;51.962;5.974;2023-11-18T03:24:05;53.97;;;24.88;;
59756;SDS011;45631;51.962;5.974;2023-11-18T03:26:34;53.58;;;26.73;;
59756;SDS011;45631;51.962;5.974;2023-11-18T03:29:02;55.10;;;25.35;;
59756;SDS011;45631;51.962;5.974;2023-11-18T03:31:32;52.55;;;26.23;;
59756;SDS011;45631;51.962;5.974;2023-11-18T03:34:00;50.72;;;24.95;;
59756;SDS011;45631;51.962;5.974;2023-11-18T03:36:28;53.97;;;25.98;;
59756;SDS011;45631;51.962;5.974;2023-11-18T03:38:56;51.30;;;25.05;;
59756;SDS011;45631;51.962;5.974;2023-11-18T03:41:24;46.55;;;24.55;;
59756;SDS011;45631;51.962;5.974;2023-11-18T03:43:53;50.28;;;25.48;;
59756;SDS011;45631;51.962;5.974;2023-11-18T03:46:21;53.40;;;26.10;;
59756;SDS011;45631;51.962;5.974;2023-11-18T03:48:50;53.63;;;25.65;;
59756;SDS011;45631;51.962;5.974;2023-11-18T03:51:18;50.22;;;26.35;;
59756;SDS011;45631;51.962;5.974;2023-11-18T03:53:50;50.08;;;24.83;;
59756;SDS011;45631;51.962;5.974;2023-11-18T03:56:18;55.63;;;27.35;;
59756;SDS011;45631;51.962;5.974;2023-11-18T03:58:48;50.53;;;26.05;;
59756;SDS011;45631;51.962;5.974;2023-11-18T04:01:19;51.78;;;25.67;;
59756;SDS011;45631;51.962;5.974;2023-11-18T04:03:48;53.20;;;26.17;;
59756;SDS011;45631;51.962;5.974;2023-11-18T04:06:18;51.10;;;26.55;;
59756;SDS011;45631;51.962;5.974;2023-11-18T04:08:48;50.88;;;27.75;;
59756;SDS011;45631;51.962;5.974;2023-11-18T04:11:16;49.53;;;26.00;;
59756;SDS011;45631;51.962;5.974;2023-11-18T04:13:45;51.35;;;26.85;;
59756;SDS011;45631;51.962;5.974;2023-11-18T04:16:13;53.45;;;26.27;;
59756;SDS011;45631;51.962;5.974;2023-11-18T04:18:43;55.35;;;28.15;;
59756;SDS011;45631;51.962;5.974;2023-11-18T04:21:12;50.35;;;26.38;;
59756;SDS011;45631;51.962;5.974;2023-11-18T04:23:44;53.10;;;26.85;;
59756;SDS011;45631;51.962;5.974;2023-11-18T04:26:13;46.10;;;25.08;;
59756;SDS011;45631;51.962;5.974;2023-11-18T04:28:43;50.22;;;26.17;;
59756;SDS011;45631;51.962;5.974;2023-11-18T04:31:11;48.70;;;26.33;;
59756;SDS011;45631;51.962;5.974;2023-11-18T04:33:40;53.30;;;27.08;;
59756;SDS011;45631;51.962;5.974;2023-11-18T04:36:12;50.78;;;25.88;;
59756;SDS011;45631;51.962;5.974;2023-11-18T04:38:44;47.53;;;24.20;;
59756;SDS011;45631;51.962;5.974;2023-11-18T04:41:12;51.28;;;25.67;;
59756;SDS011;45631;51.962;5.974;2023-11-18T04:43:40;52.55;;;26.30;;
59756;SDS011;45631;51.962;5.974;2023-11-18T04:46:11;49.70;;;26.15;;
59756;SDS011;45631;51.962;5.974;2023-11-18T04:48:39;47.42;;;24.95;;
59756;SDS011;45631;51.962;5.974;2023-11-18T04:51:08;48.80;;;26.33;;
59756;SDS011;45631;51.962;5.974;2023-11-18T04:53:37;49.60;;;24.77;;
59756;SDS011;45631;51.962;5.974;2023-11-18T04:56:08;46.22;;;24.80;;
59756;SDS011;45631;51.962;5.974;2023-11-18T04:58:37;47.00;;;25.90;;
59756;SDS011;45631;51.962;5.974;2023-11-18T05:01:09;53.55;;;27.67;;
59756;SDS011;45631;51.962;5.974;2023-11-18T05:03:37;53.88;;;25.77;;
59756;SDS011;45631;51.962;5.974;2023-11-18T05:06:06;58.42;;;28.50;;
59756;SDS011;45631;51.962;5.974;2023-11-18T05:08:37;56.10;;;26.90;;
59756;SDS011;45631;51.962;5.974;2023-11-18T05:11:05;53.50;;;27.52;;
59756;SDS011;45631;51.962;5.974;2023-11-18T05:13:34;54.65;;;26.77;;
59756;SDS011;45631;51.962;5.974;2023-11-18T05:16:04;48.90;;;25.85;;
59756;SDS011;45631;51.962;5.974;2023-11-18T05:18:33;52.50;;;27.15;;
59756;SDS011;45631;51.962;5.974;2023-11-18T05:21:03;51.53;;;25.95;;
59756;SDS011;45631;51.962;5.974;2023-11-18T05:23:33;48.58;;;25.48;;
59756;SDS011;45631;51.962;5.974;2023-11-18T05:26:02;50.08;;;27.00;;
59756;SDS011;45631;51.962;5.974;2023-11-18T05:28:32;47.80;;;26.63;;
59756;SDS011;45631;51.962;5.974;2023-11-18T05:31:01;50.55;;;26.25;;
59756;SDS011;45631;51.962;5.974;2023-11-18T05:33:30;48.67;;;25.42;;
59756;SDS011;45631;51.962;5.974;2023-11-18T05:36:03;48.17;;;25.80;;
59756;SDS011;45631;51.962;5.974;2023-11-18T05:38:32;43.65;;;25.02;;
59756;SDS011;45631;51.962;5.974;2023-11-18T05:41:02;46.20;;;25.50;;
59756;SDS011;45631;51.962;5.974;2023-11-18T05:43:34;49.50;;;26.67;;
59756;SDS011;45631;51.962;5.974;2023-11-18T05:46:08;46.10;;;26.65;;
59756;SDS011;45631;51.962;5.974;2023-11-18T05:48:49;44.22;;;25.33;;
59756;SDS011;45631;51.962;5.974;2023-11-18T05:51:21;42.95;;;23.48;;
59756;SDS011;45631;51.962;5.974;2023-11-18T05:53:50;46.13;;;25.30;;
59756;SDS011;45631;51.962;5.974;2023-11-18T05:56:18;47.67;;;24.77;;
59756;SDS011;45631;51.962;5.974;2023-11-18T05:58:51;47.40;;;24.75;;
59756;SDS011;45631;51.962;5.974;2023-11-18T06:01:21;43.70;;;24.40;;
59756;SDS011;45631;51.962;5.974;2023-11-18T06:03:50;43.85;;;23.90;;
59756;SDS011;45631;51.962;5.974;2023-11-18T06:06:18;41.38;;;24.20;;
59756;SDS011;45631;51.962;5.974;2023-11-18T06:08:50;40.38;;;23.23;;
59756;SDS011;45631;51.962;5.974;2023-11-18T06:11:20;44.35;;;25.00;;
59756;SDS011;45631;51.962;5.974;2023-11-18T06:13:51;38.85;;;24.02;;
59756;SDS011;45631;51.962;5.974;2023-11-18T06:16:20;40.90;;;22.63;;
59756;SDS011;45631;51.962;5.974;2023-11-18T06:18:54;43.47;;;23.38;;
59756;SDS011;45631;51.962;5.974;2023-11-18T06:21:23;42.28;;;24.55;;
59756;SDS011;45631;51.962;5.974;2023-11-18T06:23:55;40.72;;;22.65;;
59756;SDS011;45631;51.962;5.974;2023-11-18T06:26:23;42.13;;;22.45;;
59756;SDS011;45631;51.962;5.974;2023-11-18T06:28:57;38.15;;;23.10;;
59756;SDS011;45631;51.962;5.974;2023-11-18T06:31:26;40.03;;;22.20;;
59756;SDS011;45631;51.962;5.974;2023-11-18T06:33:58;41.50;;;23.02;;
59756;SDS011;45631;51.962;5.974;2023-11-18T06:36:28;37.50;;;23.88;;
59756;SDS011;45631;51.962;5.974;2023-11-18T06:38:57;39.17;;;22.90;;
59756;SDS011;45631;51.962;5.974;2023-11-18T06:41:25;34.65;;;22.58;;
59756;SDS011;45631;51.962;5.974;2023-11-18T06:44:02;38.42;;;23.20;;
59756;SDS011;45631;51.962;5.974;2023-11-18T06:46:36;40.03;;;21.98;;
59756;SDS011;45631;51.962;5.974;2023-11-18T06:49:07;36.00;;;22.73;;
59756;SDS011;45631;51.962;5.974;2023-11-18T06:51:38;35.58;;;21.85;;
59756;SDS011;45631;51.962;5.974;2023-11-18T06:54:06;38.75;;;22.50;;
59756;SDS011;45631;51.962;5.974;2023-11-18T06:56:38;33.53;;;21.15;;
59756;SDS011;45631;51.962;5.974;2023-11-18T06:59:11;34.33;;;20.40;;
59756;SDS011;45631;51.962;5.974;2023-11-18T07:01:43;36.78;;;20.52;;
59756;SDS011;45631;51.962;5.974;2023-11-18T07:04:12;36.78;;;20.52;;
59756;SDS011;45631;51.962;5.974;2023-11-18T07:06:42;35.38;;;19.77;;
59756;SDS011;45631;51.962;5.974;2023-11-18T07:09:10;33.17;;;20.17;;
59756;SDS011;45631;51.962;5.974;2023-11-18T07:11:44;31.92;;;19.50;;
59756;SDS011;45631;51.962;5.974;2023-11-18T07:14:15;30.88;;;19.73;;
59756;SDS011;45631;51.962;5.974;2023-11-18T07:16:44;31.25;;;18.73;;
59756;SDS011;45631;51.962;5.974;2023-11-18T07:19:12;31.75;;;18.67;;
59756;SDS011;45631;51.962;5.974;2023-11-18T07:21:47;28.92;;;18.20;;
59756;SDS011;45631;51.962;5.974;2023-11-18T07:24:16;29.52;;;18.73;;
59756;SDS011;45631;51.962;5.974;2023-11-18T07:26:47;31.05;;;18.77;;
59756;SDS011;45631;51.962;5.974;2023-11-18T07:29:19;28.70;;;18.85;;
59756;SDS011;45631;51.962;5.974;2023-11-18T07:31:50;27.02;;;18.30;;
59756;SDS011;45631;51.962;5.974;2023-11-18T07:34:18;30.05;;;18.38;;
59756;SDS011;45631;51.962;5.974;2023-11-18T07:36:46;31.35;;;19.20;;
59756;SDS011;45631;51.962;5.974;2023-11-18T07:39:14;32.20;;;19.20;;
59756;SDS011;45631;51.962;5.974;2023-11-18T07:41:50;31.10;;;18.02;;
59756;SDS011;45631;51.962;5.974;2023-11-18T07:44:21;28.45;;;17.85;;
59756;SDS011;45631;51.962;5.974;2023-11-18T07:46:50;31.30;;;18.35;;
59756;SDS011;45631;51.962;5.974;2023-11-18T07:49:18;30.45;;;18.63;;
59756;SDS011;45631;51.962;5.974;2023-11-18T07:51:47;31.40;;;18.70;;
59756;SDS011;45631;51.962;5.974;2023-11-18T07:54:15;31.77;;;18.48;;
59756;SDS011;45631;51.962;5.974;2023-11-18T07:56:44;34.40;;;19.75;;
59756;SDS011;45631;51.962;5.974;2023-11-18T07:59:14;31.77;;;18.55;;
59756;SDS011;45631;51.962;5.974;2023-11-18T08:01:44;32.95;;;19.45;;
59756;SDS011;45631;51.962;5.974;2023-11-18T08:04:13;29.10;;;18.13;;
59756;SDS011;45631;51.962;5.974;2023-11-18T08:06:41;33.58;;;18.63;;
59756;SDS011;45631;51.962;5.974;2023-11-18T08:09:11;34.65;;;18.20;;
59756;SDS011;45631;51.962;5.974;2023-11-18T08:11:40;33.25;;;18.38;;
59756;SDS011;45631;51.962;5.974;2023-11-18T08:14:09;32.63;;;19.73;;
59756;SDS011;45631;51.962;5.974;2023-11-18T08:16:37;33.10;;;18.67;;
59756;SDS011;45631;51.962;5.974;2023-11-18T08:19:07;31.38;;;18.70;;
59756;SDS011;45631;51.962;5.974;2023-11-18T08:21:35;32.53;;;17.33;;
59756;SDS011;45631;51.962;5.974;2023-11-18T08:24:06;32.75;;;18.42;;
59756;SDS011;45631;51.962;5.974;2023-11-18T08:26:35;37.75;;;19.55;;
59756;SDS011;45631;51.962;5.974;2023-11-18T08:29:03;35.28;;;18.92;;
59756;SDS011;45631;51.962;5.974;2023-11-18T08:31:33;36.50;;;19.27;;
59756;SDS011;45631;51.962;5.974;2023-11-18T08:34:02;31.52;;;17.23;;
59756;SDS011;45631;51.962;5.974;2023-11-18T08:36:33;37.45;;;19.63;;
59756;SDS011;45631;51.962;5.974;2023-11-18T08:39:01;36.67;;;18.30;;
59756;SDS011;45631;51.962;5.974;2023-11-18T08:41:29;35.30;;;18.33;;
59756;SDS011;45631;51.962;5.974;2023-11-18T08:43:58;38.08;;;19.52;;
59756;SDS011;45631;51.962;5.974;2023-11-18T08:46:46;38.40;;;18.23;;
59756;SDS011;45631;51.962;5.974;2023-11-18T08:49:14;39.63;;;18.77;;
59756;SDS011;45631;51.962;5.974;2023-11-18T08:51:49;38.40;;;17.92;;
59756;SDS011;45631;51.962;5.974;2023-11-18T08:54:25;36.45;;;18.73;;
59756;SDS011;45631;51.962;5.974;2023-11-18T08:57:03;36.47;;;18.95;;
59756;SDS011;45631;51.962;5.974;2023-11-18T08:59:46;38.03;;;18.15;;
59756;SDS011;45631;51.962;5.974;2023-11-18T09:02:14;40.88;;;18.02;;
59756;SDS011;45631;51.962;5.974;2023-11-18T09:04:49;36.45;;;17.15;;
59756;SDS011;45631;51.962;5.974;2023-11-18T09:07:18;34.50;;;16.52;;
59756;SDS011;45631;51.962;5.974;2023-11-18T09:09:47;36.85;;;15.80;;
59756;SDS011;45631;51.962;5.974;2023-11-18T09:12:19;33.60;;;16.13;;
59756;SDS011;45631;51.962;5.974;2023-11-18T09:14:47;36.50;;;16.13;;
59756;SDS011;45631;51.962;5.974;2023-11-18T09:17:18;37.53;;;16.30;;
59756;SDS011;45631;51.962;5.974;2023-11-18T09:19:49;31.25;;;17.27;;
59756;SDS011;45631;51.962;5.974;2023-11-18T09:22:23;34.15;;;16.30;;
59756;SDS011;45631;51.962;5.974;2023-11-18T09:24:51;33.83;;;16.85;;
59756;SDS011;45631;51.962;5.974;2023-11-18T09:27:22;31.92;;;15.82;;
59756;SDS011;45631;51.962;5.974;2023-11-18T09:29:50;32.78;;;14.82;;
59756;SDS011;45631;51.962;5.974;2023-11-18T09:32:18;32.58;;;15.00;;
59756;SDS011;45631;51.962;5.974;2023-11-18T09:34:46;31.70;;;15.63;;
59756;SDS011;45631;51.962;5.974;2023-11-18T09:37:17;35.63;;;15.82;;
59756;SDS011;45631;51.962;5.974;2023-11-18T09:39:48;35.90;;;15.02;;
59756;SDS011;45631;51.962;5.974;2023-11-18T09:42:19;29.58;;;14.93;;
59756;SDS011;45631;51.962;5.974;2023-11-18T09:44:50;29.67;;;14.35;;
59756;SDS011;45631;51.962;5.974;2023-11-18T09:47:20;30.67;;;14.00;;
59756;SDS011;45631;51.962;5.974;2023-11-18T09:49:54;27.40;;;13.60;;
59756;SDS011;45631;51.962;5.974;2023-11-18T09:52:26;31.00;;;15.07;;
59756;SDS011;45631;51.962;5.974;2023-11-18T09:55:01;27.00;;;13.60;;
59756;SDS011;45631;51.962;5.974;2023-11-18T09:57:32;30.73;;;14.35;;
59756;SDS011;45631;51.962;5.974;2023-11-18T10:00:07;30.90;;;13.63;;
59756;SDS011;45631;51.962;5.974;2023-11-18T10:03:00;29.13;;;14.48;;
59756;SDS011;45631;51.962;5.974;2023-11-18T10:05:28;30.10;;;14.52;;
59756;SDS011;45631;51.962;5.974;2023-11-18T10:07:57;26.75;;;13.00;;
59756;SDS011;45631;51.962;5.974;2023-11-18T10:10:27;27.90;;;13.20;;
59756;SDS011;45631;51.962;5.974;2023-11-18T10:13:04;24.08;;;12.23;;
59756;SDS011;45631;51.962;5.974;2023-11-18T10:15:40;25.75;;;13.60;;
59756;SDS011;45631;51.962;5.974;2023-11-18T10:18:08;27.30;;;12.88;;
59756;SDS011;45631;51.962;5.974;2023-11-18T10:20:49;23.60;;;11.57;;
59756;SDS011;45631;51.962;5.974;2023-11-18T10:23:19;23.80;;;11.00;;
59756;SDS011;45631;51.962;5.974;2023-11-18T10:25:50;22.73;;;10.32;;
59756;SDS011;45631;51.962;5.974;2023-11-18T10:28:23;22.70;;;10.95;;
59756;SDS011;45631;51.962;5.974;2023-11-18T10:30:54;21.88;;;9.82;;
59756;SDS011;45631;51.962;5.974;2023-11-18T10:33:25;19.52;;;9.65;;
59756;SDS011;45631;51.962;5.974;2023-11-18T10:36:00;22.30;;;10.50;;
59756;SDS011;45631;51.962;5.974;2023-11-18T10:38:30;21.80;;;9.88;;
59756;SDS011;45631;51.962;5.974;2023-11-18T10:43:33;22.60;;;9.73;;
59756;SDS011;45631;51.962;5.974;2023-11-18T10:46:06;19.27;;;8.82;;
59756;SDS011;45631;51.962;5.974;2023-11-18T10:48:42;21.23;;;10.07;;
59756;SDS011;45631;51.962;5.974;2023-11-18T10:51:15;20.15;;;9.52;;
59756;SDS011;45631;51.962;5.974;2023-11-18T10:53:46;19.55;;;10.63;;
59756;SDS011;45631;51.962;5.974;2023-11-18T10:56:27;24.13;;;11.30;;
59756;SDS011;45631;51.962;5.974;2023-11-18T10:58:56;20.52;;;9.77;;
59756;SDS011;45631;51.962;5.974;2023-11-18T11:01:28;20.00;;;9.82;;
59756;SDS011;45631;51.962;5.974;2023-11-18T11:03:58;20.58;;;9.50;;
59756;SDS011;45631;51.962;5.974;2023-11-18T11:06:31;19.58;;;9.63;;
59756;SDS011;45631;51.962;5.974;2023-11-18T11:09:01;21.35;;;9.27;;
59756;SDS011;45631;51.962;5.974;2023-11-18T11:11:44;17.65;;;9.18;;
59756;SDS011;45631;51.962;5.974;2023-11-18T11:14:15;22.02;;;10.43;;
59756;SDS011;45631;51.962;5.974;2023-11-18T11:16:45;21.95;;;9.95;;
59756;SDS011;45631;51.962;5.974;2023-11-18T11:19:25;22.00;;;10.43;;
59756;SDS011;45631;51.962;5.974;2023-11-18T11:22:03;22.70;;;9.85;;
59756;SDS011;45631;51.962;5.974;2023-11-18T11:24:44;22.60;;;9.32;;
59756;SDS011;45631;51.962;5.974;2023-11-18T11:27:23;21.42;;;9.55;;
59756;SDS011;45631;51.962;5.974;2023-11-18T11:30:03;21.83;;;10.18;;
59756;SDS011;45631;51.962;5.974;2023-11-18T11:32:50;21.45;;;10.82;;
59756;SDS011;45631;51.962;5.974;2023-11-18T11:35:22;18.52;;;8.98;;
59756;SDS011;45631;51.962;5.974;2023-11-18T11:37:54;18.98;;;9.02;;
59756;SDS011;45631;51.962;5.974;2023-11-18T11:40:33;18.17;;;8.52;;
59756;SDS011;45631;51.962;5.974;2023-11-18T11:43:06;21.48;;;9.52;;
59756;SDS011;45631;51.962;5.974;2023-11-18T11:45:37;18.27;;;8.65;;
59756;SDS011;45631;51.962;5.974;2023-11-18T11:48:06;19.15;;;8.98;;
59756;SDS011;45631;51.962;5.974;2023-11-18T11:51:00;18.73;;;8.98;;
59756;SDS011;45631;51.962;5.974;2023-11-18T11:53:42;20.48;;;9.60;;
59756;SDS011;45631;51.962;5.974;2023-11-18T11:56:15;16.75;;;7.82;;
59756;SDS011;45631;51.962;5.974;2023-11-18T11:58:49;20.77;;;8.35;;
59756;SDS011;45631;51.962;5.974;2023-11-18T12:03:57;16.88;;;8.68;;
59756;SDS011;45631;51.962;5.974;2023-11-18T12:06:28;23.30;;;9.82;;
59756;SDS011;45631;51.962;5.974;2023-11-18T12:08:56;20.15;;;9.55;;
59756;SDS011;45631;51.962;5.974;2023-11-18T12:11:25;17.00;;;9.27;;
59756;SDS011;45631;51.962;5.974;2023-11-18T12:14:04;15.82;;;9.38;;
59756;SDS011;45631;51.962;5.974;2023-11-18T12:17:00;19.33;;;10.43;;
59756;SDS011;45631;51.962;5.974;2023-11-18T12:19:35;21.80;;;9.70;;
59756;SDS011;45631;51.962;5.974;2023-11-18T12:22:12;18.55;;;9.13;;
59756;SDS011;45631;51.962;5.974;2023-11-18T12:24:45;19.63;;;9.80;;
59756;SDS011;45631;51.962;5.974;2023-11-18T12:27:40;20.00;;;9.52;;
59756;SDS011;45631;51.962;5.974;2023-11-18T12:33:10;21.17;;;10.27;;
59756;SDS011;45631;51.962;5.974;2023-11-18T12:36:04;20.48;;;9.73;;
59756;SDS011;45631;51.962;5.974;2023-11-18T12:39:20;18.98;;;8.75;;
59756;SDS011;45631;51.962;5.974;2023-11-18T12:42:08;19.27;;;8.93;;
59756;SDS011;45631;51.962;5.974;2023-11-18T12:44:48;17.20;;;9.20;;
59756;SDS011;45631;51.962;5.974;2023-11-18T12:47:43;15.63;;;8.40;;
59756;SDS011;45631;51.962;5.974;2023-11-18T12:50:12;17.33;;;7.97;;
59756;SDS011;45631;51.962;5.974;2023-11-18T12:52:51;15.88;;;8.65;;
59756;SDS011;45631;51.962;5.974;2023-11-18T12:55:20;15.65;;;7.60;;
59756;SDS011;45631;51.962;5.974;2023-11-18T12:57:48;16.27;;;7.55;;
59756;SDS011;45631;51.962;5.974;2023-11-18T13:00:18;18.98;;;7.47;;
59756;SDS011;45631;51.962;5.974;2023-11-18T13:02:54;19.63;;;7.88;;
59756;SDS011;45631;51.962;5.974;2023-11-18T13:05:24;14.52;;;7.50;;
59756;SDS011;45631;51.962;5.974;2023-11-18T13:07:56;16.47;;;7.27;;
59756;SDS011;45631;51.962;5.974;2023-11-18T13:10:26;14.43;;;6.47;;
59756;SDS011;45631;51.962;5.974;2023-11-18T13:12:54;15.77;;;6.35;;
59756;SDS011;45631;51.962;5.974;2023-11-18T13:15:24;17.02;;;7.57;;
59756;SDS011;45631;51.962;5.974;2023-11-18T13:18:01;12.90;;;7.28;;
59756;SDS011;45631;51.962;5.974;2023-11-18T13:20:33;12.52;;;6.47;;
59756;SDS011;45631;51.962;5.974;2023-11-18T13:23:08;12.67;;;6.07;;
59756;SDS011;45631;51.962;5.974;2023-11-18T13:25:39;14.07;;;6.57;;
59756;SDS011;45631;51.962;5.974;2023-11-18T13:28:10;10.02;;;6.35;;
59756;SDS011;45631;51.962;5.974;2023-11-18T13:30:39;16.27;;;6.70;;
59756;SDS011;45631;51.962;5.974;2023-11-18T13:33:11;12.52;;;5.72;;
59756;SDS011;45631;51.962;5.974;2023-11-18T13:35:39;12.82;;;6.82;;
59756;SDS011;45631;51.962;5.974;2023-11-18T13:38:09;13.80;;;6.40;;
59756;SDS011;45631;51.962;5.974;2023-11-18T13:40:44;17.67;;;8.18;;
59756;SDS011;45631;51.962;5.974;2023-11-18T13:43:13;11.82;;;6.18;;
59756;SDS011;45631;51.962;5.974;2023-11-18T13:45:42;12.93;;;5.95;;
59756;SDS011;45631;51.962;5.974;2023-11-18T13:48:13;12.63;;;6.40;;
59756;SDS011;45631;51.962;5.974;2023-11-18T13:50:44;11.75;;;5.80;;
59756;SDS011;45631;51.962;5.974;2023-11-18T13:53:12;12.70;;;6.03;;
59756;SDS011;45631;51.962;5.974;2023-11-18T13:55:42;14.02;;;6.28;;
59756;SDS011;45631;51.962;5.974;2023-11-18T13:58:10;13.43;;;5.80;;
59756;SDS011;45631;51.962;5.974;2023-11-18T14:00:38;11.65;;;6.63;;
59756;SDS011;45631;51.962;5.974;2023-11-18T14:03:08;13.43;;;5.90;;
59756;SDS011;45631;51.962;5.974;2023-11-18T14:05:40;12.90;;;5.75;;
59756;SDS011;45631;51.962;5.974;2023-11-18T14:08:16;15.48;;;6.00;;
59756;SDS011;45631;51.962;5.974;2023-11-18T14:10:46;14.18;;;5.47;;
59756;SDS011;45631;51.962;5.974;2023-11-18T14:13:29;12.55;;;5.13;;
59756;SDS011;45631;51.962;5.974;2023-11-18T14:15:57;8.60;;;4.20;;
59756;SDS011;45631;51.962;5.974;2023-11-18T14:18:26;10.75;;;4.63;;
59756;SDS011;45631;51.962;5.974;2023-11-18T14:20:56;8.48;;;4.10;;
59756;SDS011;45631;51.962;5.974;2023-11-18T14:25:55;9.75;;;5.43;;
59756;SDS011;45631;51.962;5.974;2023-11-18T14:28:23;10.88;;;5.03;;
59756;SDS011;45631;51.962;5.974;2023-11-18T14:30:53;11.68;;;4.60;;
59756;SDS011;45631;51.962;5.974;2023-11-18T14:33:21;9.45;;;5.05;;
59756;SDS011;45631;51.962;5.974;2023-11-18T14:35:49;9.85;;;4.35;;
59756;SDS011;45631;51.962;5.974;2023-11-18T14:38:18;9.77;;;5.00;;
59756;SDS011;45631;51.962;5.974;2023-11-18T14:40:48;9.85;;;4.35;;
59756;SDS011;45631;51.962;5.974;2023-11-18T14:43:16;7.68;;;4.43;;
59756;SDS011;45631;51.962;5.974;2023-11-18T14:45:45;7.88;;;4.13;;
59756;SDS011;45631;51.962;5.974;2023-11-18T14:48:13;8.05;;;4.32;;
59756;SDS011;45631;51.962;5.974;2023-11-18T14:50:41;8.93;;;3.88;;
59756;SDS011;45631;51.962;5.974;2023-11-18T14:53:09;8.40;;;4.22;;
59756;SDS011;45631;51.962;5.974;2023-11-18T14:55:39;8.55;;;3.78;;
59756;SDS011;45631;51.962;5.974;2023-11-18T14:58:08;7.43;;;3.50;;
59756;SDS011;45631;51.962;5.974;2023-11-18T15:00:38;6.88;;;3.67;;